Time;durP1;ratioP1;P1;durP2;ratioP2;P2;SDS_P1;SDS_P2;PMS_P1;PMS_P2;Temp;Humidity;BMP_temperature;BMP_pressure;BME280_temperature;BME280_humidity;BME280_pressure;Samples;Min_cycle;Max_cycle;Signal;HPM_P1;HPM_P2
2021/06/21 07:31:32;;;;;;;9.73;6.70;;;17.80;99.90;;;;;;5653771;23;20044;-92
2021/06/21 07:34:00;;;;;;;13.57;7.03;;;17.90;99.90;;;;;;4880243;29;20061;-90
2021/06/21 07:36:27;;;;;;;12.07;6.75;;;18.00;99.90;;;;;;4876890;29;20052;-85
2021/06/21 07:38:55;;;;;;;10.93;5.70;;;18.10;99.90;;;;;;4890533;29;20053;-85
2021/06/21 07:41:22;;;;;;;9.55;5.68;;;18.20;99.90;;;;;;4883318;29;20053;-86
2021/06/21 07:43:50;;;;;;;16.35;6.05;;;18.30;99.90;;;;;;4899359;29;20048;-87
2021/06/21 07:46:18;;;;;;;10.52;5.35;;;18.30;99.90;;;;;;4898081;29;20053;-85
2021/06/21 07:48:45;;;;;;;8.93;2.90;;;18.30;99.90;;;;;;4912510;29;20135;-86
2021/06/21 07:51:14;;;;;;;11.98;2.40;;;18.30;99.90;;;;;;4897885;29;20045;-90
2021/06/21 07:53:42;;;;;;;;;;;18.40;99.90;;;;;;4898044;29;20068;-89
2021/06/21 07:56:12;;;;;;;7.22;2.45;;;18.50;99.90;;;;;;4896628;29;19927;-86
2021/06/21 07:58:41;;;;;;;10.75;2.58;;;18.70;99.90;;;;;;4896541;29;20104;-86
2021/06/21 08:01:09;;;;;;;;;;;18.90;99.90;;;;;;4896764;29;20108;-85
2021/06/21 08:03:39;;;;;;;6.13;1.83;;;19.10;99.90;;;;;;4897751;29;20429;-86
2021/06/21 08:06:10;;;;;;;8.05;2.00;;;19.30;99.90;;;;;;4897643;29;20104;-85
2021/06/21 08:08:38;;;;;;;5.82;1.95;;;19.40;99.90;;;;;;4896687;29;20546;-86
2021/06/21 08:11:05;;;;;;;9.63;2.35;;;19.50;99.90;;;;;;4896864;29;20112;-85
2021/06/21 08:13:33;;;;;;;4.88;1.60;;;19.50;99.90;;;;;;4897821;29;20044;-84
2021/06/21 08:16:00;;;;;;;5.43;1.30;;;19.50;99.90;;;;;;4897579;29;20520;-85
2021/06/21 08:18:27;;;;;;;5.28;1.40;;;19.50;99.90;;;;;;4895819;29;20075;-87
2021/06/21 08:20:54;;;;;;;5.97;1.55;;;19.60;99.90;;;;;;4896266;29;20062;-85
2021/06/21 08:23:21;;;;;;;5.25;1.30;;;19.70;99.90;;;;;;4910552;29;20128;-84
2021/06/21 08:25:48;;;;;;;5.88;1.15;;;20.00;99.90;;;;;;4895806;29;20056;-85
2021/06/21 08:28:16;;;;;;;6.35;1.25;;;20.10;99.90;;;;;;4890630;29;20056;-85
2021/06/21 08:30:45;;;;;;;4.65;1.02;;;20.30;99.90;;;;;;4901609;29;20480;-87
2021/06/21 08:33:12;;;;;;;6.30;1.17;;;20.40;99.90;;;;;;4890294;29;20053;-85
2021/06/21 08:35:39;;;;;;;4.95;1.23;;;20.50;99.90;;;;;;4910032;29;20056;-87
2021/06/21 08:38:06;;;;;;;6.38;1.33;;;20.60;99.90;;;;;;4897388;29;20108;-85
2021/06/21 08:40:34;;;;;;;3.90;1.08;;;20.70;99.90;;;;;;4895469;29;20411;-84
2021/06/21 08:43:02;;;;;;;5.00;1.13;;;20.80;99.90;;;;;;4895773;29;20481;-86
2021/06/21 08:45:33;;;;;;;3.28;0.93;;;20.70;99.90;;;;;;4894910;29;21270;-86
2021/06/21 08:48:05;;;;;;;4.38;1.20;;;20.80;99.90;;;;;;4893126;29;20106;-87
2021/06/21 08:50:32;;;;;;;5.20;1.33;;;20.80;99.90;;;;;;4894213;29;20040;-85
2021/06/21 08:52:59;;;;;;;5.57;1.40;;;20.80;99.90;;;;;;4896256;29;20086;-85
2021/06/21 08:55:26;;;;;;;4.78;1.27;;;20.70;99.90;;;;;;4895153;29;20063;-86
2021/06/21 08:57:53;;;;;;;5.22;1.80;;;20.60;99.90;;;;;;4894177;29;20053;-87
2021/06/21 09:00:22;;;;;;;5.13;1.20;;;20.50;99.90;;;;;;4894830;29;20053;-87
2021/06/21 09:02:51;;;;;;;5.07;1.20;;;20.40;99.90;;;;;;4894442;29;20473;-87
2021/06/21 09:05:18;;;;;;;4.63;1.20;;;20.30;99.90;;;;;;4891854;29;20052;-86
2021/06/21 09:07:47;;;;;;;4.60;1.20;;;20.20;99.90;;;;;;4894726;29;20120;-86
2021/06/21 09:10:39;;;;;;;2.28;0.80;;;20.20;99.90;;;;;;4894704;29;20108;-88
2021/06/21 09:13:14;;;;;;;2.22;0.70;;;20.30;99.90;;;;;;4891718;29;20111;-88
2021/06/21 09:15:53;;;;;;;4.35;1.00;;;20.40;99.90;;;;;;4900796;29;20519;-87
2021/06/21 09:18:36;;;;;;;2.65;0.75;;;20.60;99.90;;;;;;4894931;29;20438;-86
2021/06/21 09:21:26;;;;;;;5.88;0.90;;;20.70;99.90;;;;;;4895579;29;20048;-84
2021/06/21 09:24:35;;;;;;;1.70;0.70;;;20.70;99.90;;;;;;4878802;29;20076;-86
2021/06/21 09:27:02;;;;;;;2.97;0.60;;;20.60;99.90;;;;;;4892721;29;20065;-87
2021/06/21 09:29:40;;;;;;;2.15;0.70;;;20.80;99.90;;;;;;4893002;29;20044;-87
2021/06/21 09:32:58;;;;;;;3.60;0.80;;;20.90;99.90;;;;;;4892243;29;20123;-87
2021/06/21 09:35:31;;;;;;;3.42;0.98;;;21.10;99.90;;;;;;4876412;29;20048;-87
2021/06/21 09:38:04;;;;;;;2.60;0.63;;;21.10;99.90;;;;;;4896050;29;20052;-86
2021/06/21 09:40:33;;;;;;;3.33;0.70;;;21.10;99.90;;;;;;4894675;29;20052;-90
2021/06/21 09:43:25;;;;;;;1.90;0.68;;;21.10;99.90;;;;;;4894085;29;20123;-88
2021/06/21 09:46:15;;;;;;;3.10;0.60;;;21.20;99.90;;;;;;4891467;29;20053;-88
2021/06/21 09:48:50;;;;;;;4.18;0.80;;;21.30;99.90;;;;;;4900966;29;20127;-87
2021/06/21 09:51:24;;;;;;;2.13;0.50;;;21.30;99.90;;;;;;4892495;29;20049;-86
2021/06/21 09:54:11;;;;;;;4.68;0.98;;;21.40;99.90;;;;;;4894792;29;20048;-90
2021/06/21 09:56:46;;;;;;;4.88;0.90;;;21.50;99.90;;;;;;4908428;29;20422;-92
2021/06/21 09:59:31;;;;;;;3.83;0.85;;;21.50;99.90;;;;;;4895197;29;20563;-93
2021/06/21 10:02:08;;;;;;;6.40;1.02;;;21.50;99.90;;;;;;4894740;29;20053;-93
2021/06/21 10:04:37;;;;;;;3.10;0.77;;;21.60;99.90;;;;;;4894735;29;20088;-89
2021/06/21 10:07:05;;;;;;;6.25;1.08;;;21.70;99.90;;;;;;4894076;29;20053;-90
2021/06/21 10:09:32;;;;;;;3.67;0.82;;;21.90;99.90;;;;;;4900555;29;20045;-92
2021/06/21 10:11:59;;;;;;;4.22;0.80;;;22.10;99.90;;;;;;4893575;29;20135;-90
2021/06/21 10:14:27;;;;;;;1.80;0.50;;;22.20;99.90;;;;;;4892454;29;20473;-85
2021/06/21 10:16:55;;;;;;;5.23;0.87;;;22.30;99.90;;;;;;4890083;29;20420;-87
2021/06/21 10:19:22;;;;;;;3.17;0.80;;;22.30;99.90;;;;;;4895344;29;20061;-89
2021/06/21 10:21:54;;;;;;;5.38;0.90;;;22.30;99.90;;;;;;4890793;29;20092;-90
2021/06/21 10:24:21;;;;;;;2.53;0.85;;;22.40;99.90;;;;;;4894745;29;20100;-90
2021/06/21 10:26:51;;;;;;;4.53;0.90;;;22.40;99.90;;;;;;4897324;29;20061;-90
2021/06/21 10:29:20;;;;;;;2.65;0.50;;;22.40;99.90;;;;;;4895752;29;20085;-91
2021/06/21 10:31:48;;;;;;;3.58;0.95;;;22.60;99.90;;;;;;4913460;29;20048;-87
2021/06/21 10:34:17;;;;;;;2.53;0.70;;;22.70;99.90;;;;;;4889958;29;20056;-87
2021/06/21 10:36:53;;;;;;;3.65;0.75;;;22.70;99.90;;;;;;4896788;29;20045;-91
2021/06/21 10:39:21;;;;;;;3.25;0.75;;;22.80;99.90;;;;;;4896569;29;20056;-91
2021/06/21 10:42:04;;;;;;;1.83;0.60;;;22.80;99.90;;;;;;4893492;29;20085;-90
2021/06/21 10:44:44;;;;;;;2.85;0.80;;;22.90;99.90;;;;;;4897558;29;20056;-89
2021/06/21 10:47:34;;;;;;;2.65;0.45;;;23.10;99.90;;;;;;4910083;29;20044;-92
2021/06/21 10:50:21;;;;;;;3.97;0.55;;;23.30;99.90;;;;;;4898858;29;20113;-84
2021/06/21 10:52:49;;;;;;;2.45;0.55;;;23.50;99.90;;;;;;4898864;29;20066;-92
2021/06/21 10:55:26;;;;;;;1.85;0.57;;;23.60;99.90;;;;;;4897444;29;20063;-91
2021/06/21 10:58:02;;;;;;;3.80;0.77;;;23.70;99.90;;;;;;4897906;29;20076;-85
2021/06/21 11:00:52;;;;;;;3.45;0.63;;;23.70;99.90;;;;;;4897982;29;20096;-91
2021/06/21 11:03:37;;;;;;;2.10;0.47;;;23.80;99.90;;;;;;4906606;29;20044;-90
2021/06/21 11:06:06;;;;;;;2.85;0.80;;;23.90;99.90;;;;;;4896754;29;20055;-90
2021/06/21 11:08:47;;;;;;;2.83;0.65;;;24.00;99.90;;;;;;4897610;29;20473;-92
2021/06/21 11:11:32;;;;;;;2.42;0.52;;;24.20;99.90;;;;;;4889283;29;20105;-89
2021/06/21 11:14:09;;;;;;;3.30;0.55;;;24.20;99.90;;;;;;4896837;29;20053;-93
2021/06/21 11:16:39;;;;;;;5.25;0.98;;;24.10;99.90;;;;;;4887927;29;20052;-92
2021/06/21 11:19:21;;;;;;;5.15;1.20;;;23.90;99.90;;;;;;4896903;29;20061;-92
2021/06/21 11:21:53;;;;;;;8.15;1.50;;;23.80;99.90;;;;;;4896106;29;20475;-92
2021/06/21 11:24:35;;;;;;;5.50;1.23;;;23.50;99.90;;;;;;4891801;29;20052;-89
2021/06/21 11:27:11;;;;;;;9.20;1.10;;;23.10;99.90;;;;;;4891552;29;20068;-91
2021/06/21 11:29:47;;;;;;;4.57;1.10;;;22.80;99.90;;;;;;4914575;29;20076;-92
2021/06/21 11:32:15;;;;;;;3.38;1.10;;;22.70;99.90;;;;;;4895535;29;20786;-93
2021/06/21 11:34:51;;;;;;;4.30;1.02;;;22.40;99.90;;;;;;4890024;29;20056;-91
2021/06/21 11:37:47;;;;;;;4.80;1.08;;;22.20;99.90;;;;;;4893995;29;20060;-90
2021/06/21 11:40:28;;;;;;;5.05;1.25;;;21.90;99.90;;;;;;4897741;29;20137;-93
2021/06/21 11:43:01;;;;;;;6.28;1.10;;;21.60;99.90;;;;;;4897700;29;20053;-90
2021/06/21 11:45:46;;;;;;;3.38;0.98;;;21.40;99.90;;;;;;4896707;29;20423;-90
2021/06/21 11:48:24;;;;;;;3.97;0.90;;;21.30;99.90;;;;;;4892889;29;20117;-92
2021/06/21 11:50:51;;;;;;;6.00;1.20;;;21.20;99.90;;;;;;4880126;29;20485;-93
2021/06/21 11:53:19;;;;;;;8.00;1.20;;;21.10;99.90;;;;;;4894699;29;20105;-93
2021/06/21 11:55:46;;;;;;;5.17;1.20;;;21.10;99.90;;;;;;4912119;29;20112;-92
2021/06/21 11:58:13;;;;;;;6.90;1.30;;;21.00;99.90;;;;;;4896644;29;20060;-90
2021/06/21 12:00:40;;;;;;;6.15;1.10;;;20.90;99.90;;;;;;4897802;29;20048;-93
2021/06/21 12:03:10;;;;;;;3.72;1.13;;;20.70;99.90;;;;;;4896894;29;20040;-90
2021/06/21 12:05:37;;;;;;;4.57;1.35;;;20.50;99.90;;;;;;4895916;29;20052;-94
2021/06/21 12:08:14;;;;;;;5.30;1.00;;;20.40;99.90;;;;;;4897552;29;20049;-91
2021/06/21 12:10:42;;;;;;;5.97;1.38;;;20.20;99.90;;;;;;4894212;29;20045;-90
2021/06/21 12:13:09;;;;;;;7.75;1.15;;;20.10;99.90;;;;;;4890988;29;20096;-90
2021/06/21 12:15:41;;;;;;;3.65;0.90;;;20.10;99.90;;;;;;4896809;29;20139;-92
2021/06/21 12:18:09;;;;;;;5.65;1.20;;;20.10;99.90;;;;;;4896012;29;20052;-92
2021/06/21 12:20:36;;;;;;;5.43;1.00;;;20.10;99.90;;;;;;4896966;29;20109;-91
2021/06/21 12:23:12;;;;;;;4.60;1.10;;;20.00;99.90;;;;;;4913023;29;20053;-85
2021/06/21 12:25:47;;;;;;;5.15;1.33;;;20.00;99.90;;;;;;4895610;29;20056;-91
2021/06/21 12:28:20;;;;;;;5.72;1.00;;;20.10;99.90;;;;;;4898312;29;20057;-90
2021/06/21 12:31:04;;;;;;;5.22;1.20;;;20.10;99.90;;;;;;4897100;29;20048;-92
2021/06/21 12:33:35;;;;;;;5.78;0.90;;;20.10;99.90;;;;;;4889215;29;20041;-90
2021/06/21 12:36:34;;;;;;;4.43;1.30;;;20.00;99.90;;;;;;4894281;29;20052;-92
2021/06/21 12:39:05;;;;;;;5.85;1.05;;;20.00;99.90;;;;;;4841688;29;20049;-89
2021/06/21 12:41:34;;;;;;;7.68;1.17;;;20.10;99.90;;;;;;4857123;29;20125;-89
2021/06/21 12:44:20;;;;;;;5.13;1.50;;;20.10;99.90;;;;;;4858761;29;20046;-90
2021/06/21 12:46:49;;;;;;;4.82;1.27;;;20.00;99.90;;;;;;4842387;29;20084;-90
2021/06/21 12:49:19;;;;;;;5.85;1.35;;;20.00;99.90;;;;;;4837352;29;20117;-89
2021/06/21 12:51:47;;;;;;;4.82;1.10;;;20.00;99.90;;;;;;4857220;29;20533;-89
2021/06/21 12:54:23;;;;;;;7.18;1.00;;;19.90;99.90;;;;;;4855384;29;20536;-91
2021/06/21 12:56:55;;;;;;;13.40;4.95;;;19.90;99.90;;;;;;4842428;29;20119;-90
2021/06/21 12:59:28;;;;;;;9.57;2.13;;;19.80;99.90;;;;;;4858510;29;20158;-91
2021/06/21 13:02:03;;;;;;;3.67;1.10;;;19.80;99.90;;;;;;4859255;29;20056;-92
2021/06/21 13:04:30;;;;;;;6.53;1.30;;;19.80;99.90;;;;;;4842406;29;20057;-90
2021/06/21 13:07:08;;;;;;;3.78;1.10;;;19.70;99.90;;;;;;4849923;29;20057;-92
2021/06/21 13:09:48;;;;;;;6.07;1.40;;;19.60;99.90;;;;;;4856631;29;20045;-87
2021/06/21 13:12:36;;;;;;;5.97;1.00;;;19.60;99.90;;;;;;4855898;29;20364;-92
2021/06/21 13:15:16;;;;;;;3.88;1.10;;;19.60;99.90;;;;;;4868258;29;20128;-90
2021/06/21 13:17:49;;;;;;;6.68;1.38;;;19.70;99.90;;;;;;4895476;29;20516;-89
2021/06/21 13:20:18;;;;;;;4.65;1.20;;;19.70;99.90;;;;;;4893859;29;20049;-90
2021/06/21 13:22:49;;;;;;;4.13;1.35;;;19.80;99.90;;;;;;4890326;29;20128;-92
2021/06/21 13:25:24;;;;;;;6.10;1.30;;;20.00;99.90;;;;;;4895116;29;20053;-90
2021/06/21 13:28:17;;;;;;;5.30;1.23;;;20.10;99.90;;;;;;4892417;29;20052;-85
2021/06/21 13:30:48;;;;;;;7.30;1.38;;;20.40;99.90;;;;;;4881878;29;20481;-91
2021/06/21 13:33:16;;;;;;;5.03;0.95;;;20.50;99.90;;;;;;4893489;29;20053;-89
2021/06/21 13:35:52;;;;;;;4.10;1.10;;;20.60;99.90;;;;;;4894432;29;20041;-88
2021/06/21 13:38:21;;;;;;;7.15;1.17;;;20.60;99.90;;;;;;4905095;29;20086;-89
2021/06/21 13:40:53;;;;;;;5.10;1.60;;;20.70;99.90;;;;;;4914252;29;20052;-90
2021/06/21 13:43:22;;;;;;;7.85;1.80;;;20.70;99.90;;;;;;4896679;29;20056;-92
2021/06/21 13:45:48;;;;;;;6.90;1.52;;;20.80;99.90;;;;;;4894238;29;20520;-93
2021/06/21 13:48:24;;;;;;;6.95;1.40;;;20.80;99.90;;;;;;4893001;29;20526;-92
2021/06/21 13:50:58;;;;;;;5.78;1.40;;;20.70;99.90;;;;;;4878942;29;20061;-88
2021/06/21 13:53:29;;;;;;;8.57;2.20;;;20.70;99.90;;;;;;4895136;29;20052;-90
2021/06/21 13:56:32;;;;;;;7.18;2.30;;;20.60;99.90;;;;;;4895556;29;20086;-89
2021/06/21 13:59:11;;;;;;;7.65;1.63;;;20.50;99.90;;;;;;4892513;29;20060;-91
2021/06/21 14:01:50;;;;;;;5.18;1.27;;;20.50;99.90;;;;;;4907746;29;20062;-89
2021/06/21 14:04:17;;;;;;;8.05;1.63;;;20.40;99.90;;;;;;4892090;29;20057;-93
2021/06/21 14:06:44;;;;;;;7.05;1.50;;;20.30;99.90;;;;;;4885074;29;20049;-90
2021/06/21 14:09:17;;;;;;;6.63;1.45;;;20.20;99.90;;;;;;4893323;29;20053;-89
2021/06/21 14:11:44;;;;;;;8.32;1.35;;;20.10;99.90;;;;;;4881043;29;20476;-92
2021/06/21 14:14:20;;;;;;;6.38;1.80;;;20.10;99.90;;;;;;4893144;29;20421;-90
2021/06/21 14:16:47;;;;;;;6.25;2.70;;;20.10;99.90;;;;;;4897265;29;20048;-92
2021/06/21 14:19:14;;;;;;;5.40;2.55;;;20.10;99.90;;;;;;4895402;29;20051;-92
2021/06/21 14:21:41;;;;;;;6.45;2.90;;;20.10;99.90;;;;;;4894705;29;20045;-90
2021/06/21 14:24:12;;;;;;;5.93;2.15;;;20.10;99.90;;;;;;4893430;29;20049;-92
2021/06/21 14:26:42;;;;;;;6.15;1.50;;;20.20;99.90;;;;;;4895212;29;20052;-91
2021/06/21 14:29:09;;;;;;;7.25;1.92;;;20.20;99.90;;;;;;4896897;29;20049;-90
2021/06/21 14:31:37;;;;;;;4.22;1.80;;;20.30;99.90;;;;;;4894539;29;20044;-93
2021/06/21 14:34:05;;;;;;;5.97;1.98;;;20.50;99.90;;;;;;4891928;29;20053;-90
2021/06/21 14:36:32;;;;;;;7.57;2.60;;;20.60;99.90;;;;;;4908810;29;20052;-92
2021/06/21 14:39:00;;;;;;;8.02;2.55;;;20.70;99.90;;;;;;4894332;29;20465;-91
2021/06/21 14:41:26;;;;;;;6.40;1.90;;;20.70;99.90;;;;;;4893066;29;20187;-91
2021/06/21 14:43:53;;;;;;;6.13;1.30;;;20.70;99.90;;;;;;4896478;29;20056;-90
2021/06/21 14:46:20;;;;;;;6.35;1.33;;;20.70;99.90;;;;;;4893790;29;20045;-90
2021/06/21 14:48:52;;;;;;;3.67;1.15;;;20.60;99.90;;;;;;4894157;29;20096;-91
2021/06/21 14:51:21;;;;;;;4.18;1.30;;;20.60;99.90;;;;;;4894562;29;20060;-88
2021/06/21 14:53:50;;;;;;;5.22;1.63;;;20.60;99.90;;;;;;4895160;29;20101;-91
2021/06/21 14:56:17;;;;;;;4.00;1.45;;;20.60;99.90;;;;;;4892062;29;20413;-92
2021/06/21 14:58:44;;;;;;;7.47;2.13;;;20.50;99.90;;;;;;4889669;29;20060;-93
2021/06/21 15:01:12;;;;;;;6.22;1.77;;;20.50;99.90;;;;;;4907033;29;20512;-89
2021/06/21 15:03:39;;;;;;;6.40;1.60;;;20.40;99.90;;;;;;4892237;29;20070;-88
2021/06/21 15:06:14;;;;;;;6.00;1.40;;;20.30;99.90;;;;;;4898153;29;20056;-88
2021/06/21 15:08:42;;;;;;;5.90;1.60;;;19.90;99.90;;;;;;4896559;29;20082;-89
2021/06/21 15:11:10;;;;;;;4.82;1.40;;;19.50;99.90;;;;;;4908016;29;20053;-88
2021/06/21 15:13:37;;;;;;;10.98;1.90;;;19.20;99.90;;;;;;4891319;29;20052;-89
2021/06/21 15:16:05;;;;;;;4.93;1.77;;;19.10;99.90;;;;;;4889127;29;20056;-90
2021/06/21 15:18:33;;;;;;;8.02;1.90;;;18.90;99.90;;;;;;4908218;29;20100;-91
2021/06/21 15:21:00;;;;;;;7.68;2.42;;;18.80;99.90;;;;;;4889021;29;20049;-89
2021/06/21 15:23:27;;;;;;;8.40;2.60;;;18.70;99.90;;;;;;4890427;29;20057;-91
2021/06/21 15:25:56;;;;;;;8.90;2.83;;;18.70;99.90;;;;;;4891484;29;20070;-89
2021/06/21 15:28:23;;;;;;;7.13;3.50;;;18.60;99.90;;;;;;4901681;29;20131;-91
2021/06/21 15:30:53;;;;;;;10.35;3.55;;;18.50;99.90;;;;;;4892311;29;20076;-90
2021/06/21 15:33:21;;;;;;;8.02;3.30;;;18.40;99.90;;;;;;4905972;29;20057;-90
2021/06/21 15:35:48;;;;;;;9.52;3.92;;;18.40;99.90;;;;;;4889143;29;20503;-88
2021/06/21 15:38:17;;;;;;;8.35;3.65;;;18.40;99.90;;;;;;4886598;29;20109;-88
2021/06/21 15:40:44;;;;;;;9.90;3.90;;;18.30;99.90;;;;;;4889497;29;20121;-88
2021/06/21 15:43:12;;;;;;;10.48;4.72;;;18.20;99.90;;;;;;4885214;29;20045;-92
2021/06/21 15:45:39;;;;;;;10.57;4.72;;;18.20;99.90;;;;;;4895414;29;20084;-89
2021/06/21 15:48:06;;;;;;;10.30;5.30;;;18.00;99.90;;;;;;4891313;29;20063;-86
2021/06/21 15:50:34;;;;;;;10.68;4.57;;;17.90;99.90;;;;;;4889867;29;20048;-88
2021/06/21 15:53:02;;;;;;;10.73;5.28;;;17.80;99.90;;;;;;4894062;29;20064;-91
2021/06/21 15:55:32;;;;;;;9.85;5.32;;;17.60;99.90;;;;;;4890320;29;20040;-88
2021/06/21 15:58:09;;;;;;;9.25;4.97;;;17.50;99.90;;;;;;4892139;29;20044;-87
2021/06/21 16:00:49;;;;;;;13.50;5.40;;;17.40;99.90;;;;;;4891393;29;20048;-90
2021/06/21 16:03:17;;;;;;;10.88;5.70;;;17.30;99.90;;;;;;4903662;29;20041;-85
2021/06/21 16:05:46;;;;;;;11.48;6.03;;;17.20;99.90;;;;;;4887087;29;20120;-84
2021/06/21 16:08:13;;;;;;;8.35;5.07;;;17.10;99.90;;;;;;4887408;29;20057;-85
2021/06/21 16:10:42;;;;;;;14.73;6.50;;;17.10;99.90;;;;;;4893877;29;20061;-86
2021/06/21 16:13:17;;;;;;;13.70;6.03;;;17.00;99.90;;;;;;4898324;29;20049;-87
2021/06/21 16:15:45;;;;;;;13.27;5.68;;;17.00;99.90;;;;;;4889490;29;20108;-89
2021/06/21 16:18:12;;;;;;;15.43;5.88;;;16.90;99.90;;;;;;4884202;29;20092;-88
2021/06/21 16:20:41;;;;;;;14.07;6.00;;;16.90;99.90;;;;;;4906272;29;20057;-89
2021/06/21 16:23:09;;;;;;;14.05;5.45;;;16.80;99.90;;;;;;4885466;29;20301;-88
2021/06/21 16:25:37;;;;;;;12.23;5.53;;;16.70;99.90;;;;;;4907344;29;20060;-86
2021/06/21 16:28:05;;;;;;;13.73;5.90;;;16.60;99.90;;;;;;4904603;29;20501;-83
2021/06/21 16:30:34;;;;;;;11.40;5.72;;;16.60;99.90;;;;;;4891620;29;20544;-83
2021/06/21 16:33:02;;;;;;;11.00;6.20;;;16.50;99.90;;;;;;4891940;29;20049;-85
2021/06/21 16:35:29;;;;;;;13.77;6.10;;;16.50;99.90;;;;;;4895664;29;20041;-86
2021/06/21 16:38:05;;;;;;;16.70;5.70;;;16.40;99.90;;;;;;4882984;29;20298;-83
2021/06/21 16:40:34;;;;;;;8.25;5.13;;;16.40;99.90;;;;;;4891755;29;20476;-84
2021/06/21 16:43:01;;;;;;;12.13;5.72;;;16.40;99.90;;;;;;4887642;29;20046;-85
2021/06/21 16:45:28;;;;;;;13.38;5.97;;;16.40;99.90;;;;;;4885629;29;20101;-83
2021/06/21 16:47:56;;;;;;;10.55;5.75;;;16.40;99.90;;;;;;4891298;29;20132;-84
2021/06/21 16:50:26;;;;;;;10.70;5.90;;;16.40;99.90;;;;;;4895101;29;20068;-83
2021/06/21 16:52:53;;;;;;;8.65;5.10;;;16.40;99.90;;;;;;4895299;29;20621;-84
2021/06/21 16:55:20;;;;;;;11.57;5.85;;;16.40;99.90;;;;;;4889662;29;20052;-86
2021/06/21 16:57:48;;;;;;;11.45;6.10;;;16.40;99.90;;;;;;4901370;29;20065;-88
2021/06/21 17:00:19;;;;;;;8.93;6.25;;;16.40;99.90;;;;;;4887626;29;20571;-84
2021/06/21 17:02:46;;;;;;;8.48;5.80;;;16.40;99.90;;;;;;4901458;29;20061;-86
2021/06/21 17:05:14;;;;;;;9.30;5.20;;;16.30;99.90;;;;;;4881504;29;20476;-84
2021/06/21 17:07:40;;;;;;;11.73;6.68;;;16.30;99.90;;;;;;4885837;29;20543;-85
2021/06/21 17:10:11;;;;;;;12.25;5.57;;;16.30;99.90;;;;;;4880228;29;20512;-86
2021/06/21 17:12:40;;;;;;;11.88;6.03;;;16.30;99.90;;;;;;4895973;29;20105;-85
2021/06/21 17:15:09;;;;;;;12.60;6.03;;;16.20;99.90;;;;;;4882035;29;20057;-88
2021/06/21 17:17:37;;;;;;;10.07;5.95;;;16.10;99.90;;;;;;4886723;29;20049;-85
2021/06/21 17:20:10;;;;;;;12.32;6.13;;;16.10;99.90;;;;;;4892725;29;20105;-84
2021/06/21 17:22:38;;;;;;;11.10;5.63;;;16.10;99.90;;;;;;4897770;29;20044;-87
2021/06/21 17:25:07;;;;;;;9.95;5.28;;;16.00;99.90;;;;;;4886990;29;20045;-86
2021/06/21 17:27:34;;;;;;;10.82;5.60;;;15.90;99.90;;;;;;4884695;29;20516;-86
2021/06/21 17:30:03;;;;;;;8.77;5.20;;;15.90;99.90;;;;;;4888252;29;20401;-85
2021/06/21 17:32:30;;;;;;;8.50;5.00;;;15.90;99.90;;;;;;4888816;29;20108;-84
2021/06/21 17:34:57;;;;;;;11.75;4.88;;;15.90;99.90;;;;;;4888336;29;20520;-88
2021/06/21 17:37:24;;;;;;;9.18;4.32;;;15.80;99.90;;;;;;4888604;29;20108;-86
2021/06/21 17:39:52;;;;;;;9.02;4.35;;;15.80;99.90;;;;;;4883360;29;20384;-87
2021/06/21 17:42:19;;;;;;;9.23;4.60;;;15.70;99.90;;;;;;4881710;29;20045;-87
2021/06/21 17:44:47;;;;;;;10.23;5.82;;;15.70;99.90;;;;;;4885361;29;20112;-88
2021/06/21 17:47:14;;;;;;;;;;;15.70;99.90;;;;;;4879549;29;20207;-86
2021/06/21 17:49:41;;;;;;;10.25;7.55;;;15.70;99.90;;;;;;4889488;29;20360;-85
2021/06/21 17:52:08;;;;;;;8.75;5.72;;;15.60;99.90;;;;;;4891500;29;20065;-89
2021/06/21 17:54:35;;;;;;;7.82;5.00;;;15.70;99.90;;;;;;4884031;29;20057;-90
2021/06/21 17:57:02;;;;;;;9.95;5.70;;;15.60;99.90;;;;;;4900244;29;20108;-88
2021/06/21 17:59:30;;;;;;;10.82;5.43;;;15.60;99.90;;;;;;4895063;29;20113;-84
2021/06/21 18:01:57;;;;;;;9.20;5.63;;;15.60;99.90;;;;;;4883829;29;20100;-84
2021/06/21 18:04:24;;;;;;;10.38;5.05;;;15.60;99.90;;;;;;4883355;29;20060;-89
2021/06/21 18:06:51;;;;;;;8.75;5.03;;;15.50;99.90;;;;;;4881157;29;20087;-86
2021/06/21 18:09:18;;;;;;;8.80;5.80;;;15.50;99.90;;;;;;4885357;29;20599;-86
2021/06/21 18:11:45;;;;;;;7.90;5.45;;;15.50;99.90;;;;;;4884863;29;20052;-85
2021/06/21 18:14:12;;;;;;;7.28;5.88;;;15.40;99.90;;;;;;4884266;29;20045;-87
2021/06/21 18:16:39;;;;;;;12.60;6.20;;;15.40;99.90;;;;;;4899541;29;20116;-87
2021/06/21 18:19:08;;;;;;;11.55;6.65;;;15.40;99.90;;;;;;4903662;29;20077;-85
2021/06/21 18:21:35;;;;;;;9.45;5.22;;;15.30;99.90;;;;;;4886472;29;20053;-83
2021/06/21 18:24:03;;;;;;;11.38;5.53;;;15.30;99.90;;;;;;4890744;29;20048;-85
2021/06/21 18:26:30;;;;;;;6.73;4.83;;;15.30;99.90;;;;;;4896580;29;20068;-86
2021/06/21 18:28:57;;;;;;;6.65;5.05;;;15.20;99.90;;;;;;4893275;29;20057;-85
2021/06/21 18:31:24;;;;;;;9.55;4.95;;;15.20;99.90;;;;;;4893078;29;20052;-90
2021/06/21 18:33:51;;;;;;;7.50;4.60;;;15.20;99.90;;;;;;4890521;29;20056;-90
2021/06/21 18:36:19;;;;;;;6.47;4.00;;;15.20;99.90;;;;;;4886092;29;20516;-85
2021/06/21 18:38:46;;;;;;;4.20;3.47;;;15.10;99.90;;;;;;4897779;29;20116;-85
2021/06/21 18:41:13;;;;;;;4.28;3.45;;;15.10;99.90;;;;;;4892072;29;20479;-83
2021/06/21 18:43:39;;;;;;;7.53;3.13;;;15.10;99.90;;;;;;4890330;29;20113;-85
2021/06/21 18:46:07;;;;;;;4.47;2.55;;;15.10;99.90;;;;;;4887665;29;20785;-86
2021/06/21 18:48:33;;;;;;;2.63;2.10;;;15.10;99.90;;;;;;4904522;29;20053;-89
2021/06/21 18:51:00;;;;;;;4.13;1.80;;;15.00;99.90;;;;;;4886442;29;20076;-88
2021/06/21 18:53:27;;;;;;;2.22;1.50;;;15.00;99.90;;;;;;4905335;29;20112;-89
2021/06/21 18:55:54;;;;;;;3.00;1.70;;;14.90;99.90;;;;;;4895237;29;20060;-90
2021/06/21 18:58:21;;;;;;;2.75;1.70;;;14.90;99.90;;;;;;4893467;29;20508;-86
2021/06/21 19:00:48;;;;;;;3.35;1.60;;;14.90;99.90;;;;;;4897204;29;20460;-87
2021/06/21 19:03:15;;;;;;;4.15;1.50;;;14.80;99.90;;;;;;4893952;29;20607;-90
2021/06/21 19:05:42;;;;;;;4.75;1.50;;;14.80;99.90;;;;;;4894286;29;20144;-85
2021/06/21 19:08:09;;;;;;;2.85;1.50;;;14.70;99.90;;;;;;4886301;29;20104;-87
2021/06/21 19:10:38;;;;;;;4.10;1.48;;;14.70;99.90;;;;;;4885528;29;20073;-85
2021/06/21 19:13:06;;;;;;;3.33;1.40;;;14.70;99.90;;;;;;4888881;29;20113;-89
2021/06/21 19:15:33;;;;;;;4.40;1.40;;;14.60;99.90;;;;;;4882095;29;20125;-86
2021/06/21 19:18:02;;;;;;;5.97;1.55;;;14.60;99.90;;;;;;4883436;29;20053;-87
2021/06/21 19:20:29;;;;;;;2.67;1.17;;;14.60;99.90;;;;;;4895923;29;20049;-88
2021/06/21 19:23:01;;;;;;;3.58;1.30;;;14.50;99.90;;;;;;4880848;29;20064;-87
2021/06/21 19:25:31;;;;;;;2.30;1.30;;;14.50;99.90;;;;;;4882744;29;20089;-86
2021/06/21 19:28:00;;;;;;;5.45;0.98;;;14.50;99.90;;;;;;4886309;29;20132;-91
2021/06/21 19:30:27;;;;;;;;;;;14.50;99.90;;;;;;4903447;29;20080;-89
2021/06/21 19:33:02;;;;;;;3.17;1.10;;;14.40;99.90;;;;;;4885731;29;20350;-89
2021/06/21 19:35:32;;;;;;;2.30;0.98;;;14.40;99.90;;;;;;4888962;29;20277;-89
2021/06/21 19:37:59;;;;;;;0.73;0.60;;;14.40;99.90;;;;;;4891736;29;20052;-91
2021/06/21 19:40:26;;;;;;;2.58;0.50;;;14.40;99.90;;;;;;4886901;29;20484;-87
2021/06/21 19:42:53;;;;;;;2.47;0.60;;;14.30;99.90;;;;;;4885469;29;20060;-88
2021/06/21 19:45:20;;;;;;;1.88;0.35;;;14.30;99.90;;;;;;4905258;29;20049;-85
2021/06/21 19:47:47;;;;;;;0.93;0.35;;;14.30;99.90;;;;;;4893096;29;20136;-86
2021/06/21 19:50:19;;;;;;;0.80;0.38;;;14.30;99.90;;;;;;4888998;29;20052;-84
2021/06/21 19:52:49;;;;;;;0.73;0.20;;;14.30;99.90;;;;;;4894945;29;20123;-86
2021/06/21 19:55:21;;;;;;;1.55;0.57;;;14.20;99.90;;;;;;4888006;29;20072;-85
2021/06/21 19:57:51;;;;;;;0.93;0.50;;;14.20;99.90;;;;;;4906872;29;20087;-84
2021/06/21 20:00:28;;;;;;;1.60;0.30;;;14.20;99.90;;;;;;4891521;29;20067;-87
2021/06/21 20:02:56;;;;;;;1.98;0.60;;;14.20;99.90;;;;;;4884398;29;20576;-86
2021/06/21 20:05:24;;;;;;;2.20;0.43;;;14.20;99.90;;;;;;4886619;29;20089;-87
2021/06/21 20:07:52;;;;;;;1.83;0.40;;;14.20;99.90;;;;;;4887365;29;20084;-87
2021/06/21 20:10:20;;;;;;;1.00;0.40;;;14.10;99.90;;;;;;4881919;29;20576;-86
2021/06/21 20:12:47;;;;;;;0.88;0.50;;;14.10;99.90;;;;;;4884179;29;20045;-90
2021/06/21 20:15:16;;;;;;;1.60;0.30;;;14.10;99.90;;;;;;4891398;29;20061;-86
2021/06/21 20:17:44;;;;;;;1.20;0.60;;;14.10;99.90;;;;;;4894637;29;20044;-87
2021/06/21 20:20:13;;;;;;;0.40;0.20;;;14.10;99.90;;;;;;4888549;29;20044;-87
2021/06/21 20:22:41;;;;;;;2.00;0.60;;;14.00;99.90;;;;;;4888471;29;20514;-87
2021/06/21 20:25:09;;;;;;;1.07;0.53;;;14.00;99.90;;;;;;4893959;29;20096;-86
2021/06/21 20:27:37;;;;;;;1.73;0.60;;;14.00;99.90;;;;;;4895229;29;20435;-88
2021/06/21 20:30:06;;;;;;;2.13;0.60;;;14.00;99.90;;;;;;4894934;29;20072;-86
2021/06/21 20:32:34;;;;;;;;;;;14.00;99.90;;;;;;4896002;29;20489;-88
2021/06/21 20:35:05;;;;;;;2.25;0.60;;;13.90;99.90;;;;;;4886205;29;19976;-86